Time;durP1;ratioP1;P1;durP2;ratioP2;P2;SDS_P1;SDS_P2;PMS_P1;PMS_P2;Temp;Humidity;BMP_temperature;BMP_pressure;BME280_temperature;BME280_humidity;BME280_pressure;Samples;Min_cycle;Max_cycle;Signal;HPM_P1;HPM_P2
2023/09/24 00:00:56;;;;;;;5.85;5.25;;;19.20;81.80;;;;;;6150711;22;20525;-82
2023/09/24 00:03:22;;;;;;;5.60;5.10;;;19.20;81.80;;;;;;6124864;23;20159;-83
2023/09/24 00:05:48;;;;;;;5.45;4.95;;;19.20;81.80;;;;;;6150944;23;20283;-85
2023/09/24 00:08:14;;;;;;;5.97;5.28;;;19.10;81.80;;;;;;6150431;22;20163;-81
2023/09/24 00:10:40;;;;;;;5.53;5.03;;;19.20;81.80;;;;;;6152023;22;20139;-79
2023/09/24 00:13:06;;;;;;;5.60;5.10;;;19.20;81.80;;;;;;6151861;22;20175;-86
2023/09/24 00:15:33;;;;;;;5.38;4.88;;;19.20;81.80;;;;;;6101488;23;20179;-81
2023/09/24 00:18:00;;;;;;;5.80;4.88;;;19.20;81.80;;;;;;6101456;23;20144;-81
2023/09/24 00:20:26;;;;;;;5.22;4.72;;;19.20;81.90;;;;;;6151708;23;20140;-81
2023/09/24 00:22:52;;;;;;;5.28;4.78;;;19.20;81.90;;;;;;6126252;23;20148;-78
2023/09/24 00:25:18;;;;;;;5.93;5.32;;;19.20;81.80;;;;;;6151909;22;20161;-82
2023/09/24 00:27:44;;;;;;;5.85;5.25;;;19.20;81.80;;;;;;6101455;23;20604;-84
2023/09/24 00:30:13;;;;;;;5.40;4.90;;;19.20;81.80;;;;;;6125882;23;20155;-83
2023/09/24 00:32:39;;;;;;;5.60;5.00;;;19.20;81.80;;;;;;6078531;23;20183;-84
2023/09/24 00:35:05;;;;;;;5.38;4.75;;;19.20;81.80;;;;;;6125926;23;20475;-82
2023/09/24 00:37:32;;;;;;;5.50;5.00;;;19.20;81.80;;;;;;6125455;23;20170;-81
2023/09/24 00:39:58;;;;;;;5.78;5.18;;;19.20;81.80;;;;;;6126107;23;20764;-83
2023/09/24 00:42:27;;;;;;;5.80;5.30;;;19.20;81.80;;;;;;6151917;22;20150;-84
2023/09/24 00:44:53;;;;;;;5.47;4.90;;;19.20;81.80;;;;;;6101744;23;20206;-82
2023/09/24 00:47:19;;;;;;;5.38;4.88;;;19.20;81.80;;;;;;6151791;23;20140;-81
2023/09/24 00:49:45;;;;;;;5.07;4.57;;;19.20;81.80;;;;;;6151727;22;20140;-81
2023/09/24 00:52:11;;;;;;;5.65;5.07;;;19.20;81.90;;;;;;6126088;23;20195;-83
2023/09/24 00:54:38;;;;;;;5.57;4.88;;;19.20;81.90;;;;;;6151766;22;20135;-81
2023/09/24 00:57:05;;;;;;;5.32;4.82;;;19.20;81.90;;;;;;6151630;23;20215;-80
2023/09/24 00:59:31;;;;;;;5.15;4.65;;;19.20;81.80;;;;;;6151830;22;20139;-83
2023/09/24 01:01:57;;;;;;;5.10;4.60;;;19.20;81.90;;;;;;6125568;23;20140;-85
2023/09/24 01:04:23;;;;;;;5.20;4.55;;;19.20;82.70;;;;;;6151618;22;20594;-84
2023/09/24 01:06:49;;;;;;;5.38;4.85;;;19.10;81.80;;;;;;6151646;22;20136;-81
2023/09/24 01:09:17;;;;;;;5.57;4.88;;;19.20;81.90;;;;;;6125193;23;20641;-82
2023/09/24 01:11:42;;;;;;;5.43;4.93;;;19.10;81.80;;;;;;6125376;23;20204;-82
2023/09/24 01:14:08;;;;;;;5.78;5.18;;;19.10;81.90;;;;;;6151800;22;20136;-82
2023/09/24 01:16:37;;;;;;;5.22;4.72;;;19.10;81.80;;;;;;6101029;23;20147;-82
2023/09/24 01:19:03;;;;;;;5.53;5.00;;;19.20;81.90;;;;;;6151255;23;20606;-82
2023/09/24 01:21:29;;;;;;;5.47;4.97;;;19.20;81.90;;;;;;6125427;23;20152;-82
2023/09/24 01:23:55;;;;;;;5.72;4.80;;;19.10;81.90;;;;;;6125689;23;20164;-83
2023/09/24 01:26:24;;;;;;;5.10;4.60;;;19.10;81.90;;;;;;6151343;22;20555;-80
2023/09/24 01:28:51;;;;;;;5.20;4.70;;;19.20;81.90;;;;;;6126055;22;20190;-81
2023/09/24 01:31:18;;;;;;;5.80;5.05;;;19.10;81.90;;;;;;6151906;22;20571;-82
2023/09/24 01:33:44;;;;;;;6.30;5.00;;;19.10;81.90;;;;;;6101191;23;20214;-83
2023/09/24 01:36:10;;;;;;;6.03;5.07;;;19.20;81.90;;;;;;6151946;22;20139;-80
2023/09/24 01:38:40;;;;;;;5.40;4.90;;;19.20;81.90;;;;;;6151233;22;20147;-83
2023/09/24 01:41:10;;;;;;;5.65;4.88;;;19.10;81.90;;;;;;6151710;22;20132;-83
2023/09/24 01:43:39;;;;;;;5.40;4.90;;;19.20;81.90;;;;;;6125951;23;20190;-82
2023/09/24 01:46:08;;;;;;;5.20;4.70;;;19.20;81.90;;;;;;6126016;23;20159;-82
2023/09/24 01:48:34;;;;;;;5.20;4.70;;;19.20;81.90;;;;;;6151542;23;20190;-81
2023/09/24 01:51:10;;;;;;;5.03;4.50;;;19.20;81.90;;;;;;6125982;23;20146;-84
2023/09/24 01:53:38;;;;;;;6.05;5.10;;;19.10;81.90;;;;;;6151680;22;20170;-81
2023/09/24 01:56:06;;;;;;;5.78;5.10;;;19.20;82.00;;;;;;6151600;22;20128;-80
2023/09/24 01:58:33;;;;;;;5.90;5.30;;;19.10;81.90;;;;;;6101950;23;20151;-81
2023/09/24 02:00:58;;;;;;;5.35;4.85;;;19.20;81.90;;;;;;6101216;23;20147;-84
2023/09/24 02:03:24;;;;;;;5.50;4.93;;;19.10;81.90;;;;;;6151728;23;20154;-86
2023/09/24 02:05:50;;;;;;;5.78;5.18;;;19.20;81.90;;;;;;6151473;22;20554;-82
2023/09/24 02:08:17;;;;;;;5.20;4.70;;;19.10;81.90;;;;;;6124536;23;20147;-82
2023/09/24 02:10:43;;;;;;;5.78;4.95;;;19.20;82.00;;;;;;6125586;23;20478;-84
2023/09/24 02:13:12;;;;;;;5.00;4.50;;;19.10;81.90;;;;;;6151098;22;20262;-81
2023/09/24 02:15:38;;;;;;;5.15;4.65;;;19.10;82.00;;;;;;6177557;23;20158;-79
2023/09/24 02:18:04;;;;;;;5.30;4.80;;;19.20;82.00;;;;;;6151635;23;20211;-84
2023/09/24 02:20:32;;;;;;;5.22;4.72;;;19.10;81.90;;;;;;6101487;23;20163;-81
2023/09/24 02:23:02;;;;;;;5.70;4.82;;;19.10;81.90;;;;;;6177106;23;20163;-82
2023/09/24 02:25:30;;;;;;;5.38;4.88;;;19.20;82.00;;;;;;6076175;23;20169;-81
2023/09/24 02:27:56;;;;;;;4.82;4.32;;;19.10;82.00;;;;;;6075905;23;20203;-82
2023/09/24 02:30:24;;;;;;;5.13;4.60;;;19.10;82.00;;;;;;6124844;23;20155;-84
2023/09/24 02:32:50;;;;;;;5.45;4.95;;;19.20;82.00;;;;;;6151191;23;20220;-82
2023/09/24 02:35:16;;;;;;;5.55;4.95;;;19.10;81.90;;;;;;6125376;23;20159;-84
2023/09/24 02:37:48;;;;;;;5.40;4.80;;;19.10;82.00;;;;;;6125377;23;20171;-85
2023/09/24 02:40:18;;;;;;;5.50;4.90;;;19.20;82.00;;;;;;6125603;23;20166;-79
2023/09/24 02:42:46;;;;;;;5.40;4.65;;;19.20;82.00;;;;;;6151502;22;20186;-83
2023/09/24 02:45:15;;;;;;;5.07;4.57;;;19.10;82.00;;;;;;6126077;23;20830;-86
2023/09/24 02:47:41;;;;;;;5.10;4.50;;;19.10;82.00;;;;;;6151423;22;20136;-85
2023/09/24 02:50:08;;;;;;;5.03;4.50;;;19.10;82.00;;;;;;6100777;23;20208;-82
2023/09/24 02:52:35;;;;;;;5.38;4.88;;;19.10;82.00;;;;;;6125440;23;20602;-84
2023/09/24 02:55:01;;;;;;;5.30;4.80;;;19.20;82.00;;;;;;6125039;23;20151;-83
2023/09/24 02:57:27;;;;;;;5.82;5.03;;;19.10;81.90;;;;;;6101097;23;20136;-83
2023/09/24 02:59:53;;;;;;;5.25;4.75;;;19.10;82.00;;;;;;6125098;23;20144;-84
2023/09/24 03:02:19;;;;;;;5.00;4.50;;;19.10;81.90;;;;;;6125016;23;20151;-79
2023/09/24 03:04:44;;;;;;;5.25;4.75;;;19.10;82.00;;;;;;6151261;22;20135;-82
2023/09/24 03:07:10;;;;;;;5.22;4.72;;;19.10;82.00;;;;;;6124846;23;20154;-83
2023/09/24 03:09:37;;;;;;;5.13;4.63;;;19.10;82.00;;;;;;6099862;23;20831;-84
2023/09/24 03:12:02;;;;;;;5.50;4.90;;;19.10;82.00;;;;;;6125065;23;20514;-86
2023/09/24 03:14:28;;;;;;;5.03;4.53;;;19.10;82.00;;;;;;6100652;23;20516;-81
2023/09/24 03:16:54;;;;;;;4.90;4.40;;;19.10;82.00;;;;;;6125309;23;20223;-82
2023/09/24 03:19:20;;;;;;;5.00;4.50;;;19.10;82.00;;;;;;6151008;22;20144;-84
2023/09/24 03:21:46;;;;;;;5.15;4.63;;;19.10;82.00;;;;;;6124987;23;20459;-82
2023/09/24 03:24:14;;;;;;;5.13;4.63;;;19.10;82.00;;;;;;6151122;22;20139;-81
2023/09/24 03:26:41;;;;;;;5.10;4.60;;;19.10;82.00;;;;;;6151010;22;20135;-84
2023/09/24 03:29:07;;;;;;;5.35;4.85;;;19.10;82.00;;;;;;6149387;22;20192;-81
2023/09/24 03:31:33;;;;;;;5.10;4.50;;;19.10;82.00;;;;;;6149074;22;20170;-82
2023/09/24 03:33:59;;;;;;;5.70;5.13;;;19.10;82.00;;;;;;6122951;23;20491;-85
2023/09/24 03:36:25;;;;;;;5.38;4.88;;;19.10;82.00;;;;;;6148835;22;20136;-86
2023/09/24 03:38:51;;;;;;;5.03;4.53;;;19.10;82.00;;;;;;6148460;22;20138;-81
2023/09/24 03:41:17;;;;;;;5.45;4.82;;;19.10;82.10;;;;;;6122687;23;20136;-82
2023/09/24 03:43:43;;;;;;;4.65;4.20;;;19.10;82.10;;;;;;6122786;23;20191;-83
2023/09/24 03:46:09;;;;;;;6.00;4.80;;;19.10;82.10;;;;;;6122742;23;20458;-83
2023/09/24 03:48:35;;;;;;;5.30;4.80;;;19.10;82.10;;;;;;6149277;22;20143;-81
2023/09/24 03:51:01;;;;;;;5.15;4.68;;;19.10;82.10;;;;;;6122850;23;20250;-84
2023/09/24 03:53:27;;;;;;;5.30;4.80;;;19.10;82.10;;;;;;6098853;23;20535;-80
2023/09/24 03:55:53;;;;;;;5.07;4.57;;;19.20;82.10;;;;;;6122956;23;20617;-84
2023/09/24 03:58:19;;;;;;;5.18;4.68;;;19.10;82.10;;;;;;6148943;22;20131;-82
2023/09/24 04:00:45;;;;;;;5.00;4.50;;;19.10;82.00;;;;;;6148445;22;20432;-80
2023/09/24 04:03:12;;;;;;;5.47;4.55;;;19.10;82.00;;;;;;6148812;22;20140;-81
2023/09/24 04:05:38;;;;;;;5.53;4.80;;;19.10;82.00;;;;;;6123200;23;20583;-81
2023/09/24 04:08:04;;;;;;;4.90;4.40;;;19.10;82.00;;;;;;6121602;23;20649;-84
2023/09/24 04:10:30;;;;;;;5.63;4.95;;;19.10;82.00;;;;;;6122837;23;20140;-82
2023/09/24 04:12:57;;;;;;;5.10;4.60;;;19.10;82.00;;;;;;6148594;22;20606;-83
2023/09/24 04:15:27;;;;;;;5.05;4.55;;;19.10;82.00;;;;;;6122554;23;20152;-85
2023/09/24 04:17:53;;;;;;;6.15;5.05;;;19.20;82.10;;;;;;6123256;23;20467;-83
2023/09/24 04:20:20;;;;;;;5.47;4.97;;;19.10;82.10;;;;;;6123036;23;20585;-85
2023/09/24 04:22:45;;;;;;;5.03;4.53;;;19.10;82.10;;;;;;6122713;23;20147;-83
2023/09/24 04:25:14;;;;;;;5.55;4.97;;;19.10;82.10;;;;;;6098414;23;20529;-82
2023/09/24 04:27:41;;;;;;;4.97;4.47;;;19.20;82.10;;;;;;6066717;22;1214409;-81
2023/09/24 04:30:15;;;;;;;5.25;4.68;;;19.10;82.10;;;;;;6119921;23;20149;-84
2023/09/24 04:32:41;;;;;;;5.10;4.60;;;19.10;82.10;;;;;;6121248;23;20786;-85
2023/09/24 04:35:09;;;;;;;5.35;4.80;;;19.10;82.10;;;;;;6119498;23;20133;-83
2023/09/24 04:37:36;;;;;;;5.10;4.60;;;19.10;82.10;;;;;;6119196;23;20133;-82
2023/09/24 04:40:05;;;;;;;5.00;4.45;;;19.20;82.10;;;;;;6121254;23;20145;-81
2023/09/24 04:42:31;;;;;;;5.47;4.97;;;19.10;82.10;;;;;;6119598;23;20166;-84
2023/09/24 04:44:57;;;;;;;4.90;4.40;;;19.10;82.10;;;;;;6120892;23;20172;-82
2023/09/24 04:47:23;;;;;;;5.10;4.60;;;19.10;82.10;;;;;;6120895;23;20563;-82
2023/09/24 04:49:49;;;;;;;5.20;4.70;;;19.10;82.10;;;;;;6120971;23;20167;-79
2023/09/24 04:52:15;;;;;;;5.20;4.70;;;19.10;82.10;;;;;;6119442;23;20603;-81
2023/09/24 04:54:40;;;;;;;5.00;4.50;;;19.00;82.00;;;;;;6122436;23;20132;-83
2023/09/24 04:57:09;;;;;;;5.13;4.55;;;19.10;82.10;;;;;;6122268;23;20140;-82
2023/09/24 04:59:34;;;;;;;5.13;4.63;;;19.10;82.10;;;;;;6122296;23;20143;-83
2023/09/24 05:02:00;;;;;;;5.28;4.75;;;19.00;82.10;;;;;;6096158;23;20152;-82
2023/09/24 05:04:26;;;;;;;5.13;4.63;;;19.10;82.10;;;;;;6122200;23;20579;-84
2023/09/24 05:06:52;;;;;;;5.10;4.60;;;19.10;82.10;;;;;;6096262;23;20587;-84
2023/09/24 05:09:18;;;;;;;5.03;4.53;;;19.10;82.10;;;;;;6119879;23;20227;-84
2023/09/24 05:11:45;;;;;;;5.28;4.78;;;19.10;82.30;;;;;;6095213;23;20183;-84
2023/09/24 05:14:11;;;;;;;5.00;4.50;;;19.10;82.20;;;;;;6122234;23;20140;-82
2023/09/24 05:16:36;;;;;;;4.93;4.47;;;19.10;82.20;;;;;;6122460;23;20144;-79
2023/09/24 05:19:03;;;;;;;4.82;4.32;;;19.20;82.10;;;;;;6120821;23;20583;-81
2023/09/24 05:21:29;;;;;;;6.00;4.85;;;19.10;82.00;;;;;;6121168;23;20519;-83
2023/09/24 05:23:54;;;;;;;5.05;4.55;;;19.10;82.00;;;;;;6122389;23;20144;-84
2023/09/24 05:26:20;;;;;;;5.25;4.55;;;19.10;82.00;;;;;;6120769;23;20202;-83
2023/09/24 05:28:46;;;;;;;5.03;4.53;;;19.10;82.00;;;;;;6120506;22;20188;-85
2023/09/24 05:31:12;;;;;;;5.25;4.75;;;19.10;82.00;;;;;;6096419;23;20187;-83
2023/09/24 05:33:38;;;;;;;5.50;5.00;;;19.10;82.10;;;;;;6120721;23;20496;-83
2023/09/24 05:36:04;;;;;;;5.00;4.50;;;19.10;82.10;;;;;;6121133;23;20557;-82
2023/09/24 05:38:30;;;;;;;5.15;4.50;;;19.00;82.00;;;;;;6121947;23;20192;-83
2023/09/24 05:40:56;;;;;;;5.25;4.75;;;19.10;82.10;;;;;;6130604;23;20579;-84
2023/09/24 05:43:22;;;;;;;5.15;4.60;;;19.10;82.10;;;;;;6133108;23;20151;-79
2023/09/24 05:45:49;;;;;;;5.00;4.40;;;19.10;82.10;;;;;;6133839;23;20168;-85
2023/09/24 05:48:15;;;;;;;5.32;4.72;;;19.10;82.10;;;;;;6107949;23;20189;-82
2023/09/24 05:50:42;;;;;;;4.97;4.47;;;19.10;82.10;;;;;;6130992;23;20136;-83
2023/09/24 05:53:09;;;;;;;5.22;4.72;;;19.10;82.10;;;;;;6129971;23;20172;-82
2023/09/24 05:55:35;;;;;;;4.72;4.28;;;19.10;82.10;;;;;;6132702;23;20133;-82
2023/09/24 05:58:07;;;;;;;4.93;4.30;;;19.10;82.10;;;;;;6135271;23;20145;-82
2023/09/24 06:00:36;;;;;;;5.40;4.90;;;19.10;82.10;;;;;;6198083;23;20170;-81
2023/09/24 06:03:04;;;;;;;4.90;4.40;;;19.10;82.30;;;;;;6120894;23;20144;-82
2023/09/24 06:05:29;;;;;;;5.10;4.60;;;19.10;82.10;;;;;;6120553;23;20160;-84
2023/09/24 06:07:59;;;;;;;5.45;4.75;;;19.10;82.10;;;;;;6121348;23;20311;-80
2023/09/24 06:10:25;;;;;;;5.40;4.40;;;19.10;82.00;;;;;;6196856;23;20231;-81
2023/09/24 06:12:50;;;;;;;5.15;4.65;;;19.10;82.00;;;;;;6121742;23;20187;-84
2023/09/24 06:15:17;;;;;;;5.28;4.78;;;19.10;82.00;;;;;;6121738;23;20136;-85
2023/09/24 06:17:43;;;;;;;4.97;4.40;;;19.10;82.00;;;;;;6121260;23;20206;-83
2023/09/24 06:20:10;;;;;;;5.35;4.70;;;19.10;82.00;;;;;;6121365;23;20133;-85
2023/09/24 06:22:36;;;;;;;4.82;4.32;;;19.10;82.00;;;;;;6120679;23;20132;-85
2023/09/24 06:25:03;;;;;;;4.65;4.20;;;19.20;82.00;;;;;;6121081;23;20143;-81
2023/09/24 06:27:29;;;;;;;4.93;4.40;;;19.20;82.00;;;;;;6129927;22;20197;-81
2023/09/24 06:29:55;;;;;;;4.80;4.40;;;19.10;82.00;;;;;;6159161;22;20143;-78
2023/09/24 06:32:21;;;;;;;4.82;4.40;;;19.10;82.00;;;;;;6129960;23;20167;-81
2023/09/24 06:34:51;;;;;;;5.05;4.55;;;19.10;82.00;;;;;;6127805;23;20132;-79
2023/09/24 06:37:17;;;;;;;4.72;4.32;;;19.10;82.00;;;;;;6152686;22;20143;-86
2023/09/24 06:39:44;;;;;;;4.55;4.10;;;19.10;82.00;;;;;;6125462;23;20785;-84
2023/09/24 06:42:09;;;;;;;4.80;4.20;;;19.20;81.60;;;;;;6151474;22;20136;-80
2023/09/24 06:44:35;;;;;;;4.10;3.67;;;19.10;81.30;;;;;;6100794;23;20225;-82
2023/09/24 06:47:01;;;;;;;4.60;3.70;;;19.10;81.00;;;;;;6125413;23;20510;-81
2023/09/24 06:49:27;;;;;;;3.80;3.40;;;19.10;80.90;;;;;;6150722;23;20140;-84
2023/09/24 06:51:53;;;;;;;3.90;3.38;;;19.00;80.70;;;;;;6124893;23;20174;-82
2023/09/24 06:54:20;;;;;;;3.45;3.15;;;19.10;80.90;;;;;;6151256;22;20463;-83
2023/09/24 06:56:48;;;;;;;3.90;3.50;;;19.10;81.00;;;;;;6124708;23;20222;-83
2023/09/24 06:59:14;;;;;;;3.65;3.30;;;19.00;80.80;;;;;;6101084;23;20225;-82
2023/09/24 07:01:40;;;;;;;4.22;3.30;;;19.00;80.80;;;;;;6150865;22;20140;-82
2023/09/24 07:04:11;;;;;;;4.28;3.22;;;19.00;80.90;;;;;;6125260;23;20521;-84
2023/09/24 07:06:36;;;;;;;3.55;3.00;;;19.00;80.90;;;;;;6202219;23;20171;-85
2023/09/24 07:09:05;;;;;;;3.40;3.10;;;18.90;81.00;;;;;;6150343;22;20162;-85
2023/09/24 07:11:33;;;;;;;3.83;3.42;;;18.90;81.00;;;;;;6125854;23;20131;-81
2023/09/24 07:13:58;;;;;;;3.75;3.03;;;18.90;81.00;;;;;;6125085;23;20630;-81
2023/09/24 07:16:25;;;;;;;4.15;3.22;;;18.90;81.10;;;;;;6124711;23;20147;-82
2023/09/24 07:18:51;;;;;;;3.28;2.97;;;18.90;80.90;;;;;;6125235;23;20479;-84
2023/09/24 07:21:18;;;;;;;4.22;3.50;;;18.90;81.10;;;;;;6150952;22;20135;-80
2023/09/24 07:23:44;;;;;;;3.25;2.90;;;18.80;80.90;;;;;;6125043;23;20146;-82
2023/09/24 07:26:10;;;;;;;3.20;2.90;;;18.80;80.80;;;;;;6125054;23;20136;-84
2023/09/24 07:28:35;;;;;;;3.97;3.10;;;18.80;80.80;;;;;;6150607;22;20616;-81
2023/09/24 07:31:02;;;;;;;3.55;2.92;;;18.80;80.60;;;;;;6076694;23;20159;-82
2023/09/24 07:33:27;;;;;;;3.40;3.08;;;18.80;80.70;;;;;;6151003;22;20164;-82
2023/09/24 07:35:54;;;;;;;3.45;2.92;;;18.80;80.50;;;;;;6124927;23;20281;-84
2023/09/24 07:38:19;;;;;;;4.72;2.85;;;18.80;80.60;;;;;;6124854;23;20140;-80
2023/09/24 07:40:45;;;;;;;3.97;2.80;;;18.80;80.40;;;;;;6151358;23;20233;-82
2023/09/24 07:43:11;;;;;;;3.30;3.00;;;18.80;80.40;;;;;;6124994;23;20155;-82
2023/09/24 07:45:37;;;;;;;4.10;2.88;;;18.80;80.80;;;;;;6151092;22;20147;-83
2023/09/24 07:48:06;;;;;;;3.60;2.88;;;18.80;80.50;;;;;;6151209;22;20182;-83
2023/09/24 07:50:32;;;;;;;2.90;2.60;;;18.80;80.40;;;;;;6150845;22;20136;-82
2023/09/24 07:52:58;;;;;;;2.95;2.53;;;18.80;80.50;;;;;;6125057;23;20167;-81
2023/09/24 07:55:23;;;;;;;2.72;2.50;;;18.70;80.20;;;;;;6124940;23;20135;-83
2023/09/24 07:57:49;;;;;;;3.22;2.92;;;18.70;80.20;;;;;;6150966;22;20800;-85
2023/09/24 08:00:15;;;;;;;2.95;2.55;;;18.70;80.20;;;;;;6124878;23;20153;-82
2023/09/24 08:02:43;;;;;;;2.60;2.40;;;18.80;80.10;;;;;;6150511;23;20136;-83
2023/09/24 08:05:09;;;;;;;2.80;2.60;;;18.80;80.00;;;;;;6100447;23;20155;-79
2023/09/24 08:07:36;;;;;;;3.03;2.50;;;18.70;80.40;;;;;;6124378;23;20206;-79
2023/09/24 08:10:02;;;;;;;3.38;2.60;;;18.70;80.00;;;;;;6124530;23;20179;-83
2023/09/24 08:12:28;;;;;;;3.17;2.88;;;18.70;80.00;;;;;;6150850;22;20492;-80
2023/09/24 08:14:53;;;;;;;2.65;2.45;;;18.70;80.10;;;;;;6150929;22;20587;-82
2023/09/24 08:17:19;;;;;;;2.78;2.53;;;18.70;80.00;;;;;;6124790;23;20139;-79
2023/09/24 08:19:45;;;;;;;2.78;2.28;;;18.70;79.80;;;;;;6150719;22;20135;-83
2023/09/24 08:22:11;;;;;;;2.65;2.45;;;18.70;79.60;;;;;;6076329;23;20163;-84
2023/09/24 08:24:37;;;;;;;2.90;2.50;;;18.70;79.80;;;;;;6150674;22;20140;-82
2023/09/24 08:27:03;;;;;;;2.88;2.58;;;18.70;79.80;;;;;;6124384;23;20140;-84
2023/09/24 08:29:28;;;;;;;3.03;2.47;;;18.80;79.60;;;;;;6120003;22;20191;-82
2023/09/24 08:31:54;;;;;;;3.03;2.60;;;18.70;79.40;;;;;;6122223;23;20508;-83
2023/09/24 08:34:20;;;;;;;2.78;2.30;;;18.70;79.30;;;;;;6096607;23;20270;-80
2023/09/24 08:36:45;;;;;;;2.70;2.28;;;18.70;79.20;;;;;;6096582;23;20227;-84
2023/09/24 08:39:14;;;;;;;2.63;2.42;;;18.70;79.20;;;;;;6120888;23;20223;-82
2023/09/24 08:41:43;;;;;;;2.40;2.20;;;18.70;79.00;;;;;;6122183;23;20136;-85
2023/09/24 08:44:11;;;;;;;2.38;2.17;;;18.70;78.90;;;;;;6121353;23;20157;-81
2023/09/24 08:46:37;;;;;;;2.30;2.00;;;18.70;78.90;;;;;;6120897;23;20587;-80
2023/09/24 08:49:04;;;;;;;2.42;2.22;;;18.80;78.70;;;;;;6120908;23;20136;-83
2023/09/24 08:51:32;;;;;;;2.13;1.90;;;18.80;78.70;;;;;;6122301;23;20745;-84
2023/09/24 08:53:59;;;;;;;2.30;2.10;;;18.70;78.50;;;;;;6120783;23;20172;-81
2023/09/24 08:56:26;;;;;;;2.53;2.33;;;18.80;78.50;;;;;;6122640;23;20198;-82
2023/09/24 08:58:53;;;;;;;2.53;2.33;;;18.70;78.60;;;;;;6122406;23;20568;-79
2023/09/24 09:01:18;;;;;;;2.15;1.95;;;18.80;78.30;;;;;;6120533;23;20156;-82
2023/09/24 09:03:44;;;;;;;2.30;2.10;;;18.80;79.00;;;;;;6120885;23;20136;-80
2023/09/24 09:06:10;;;;;;;2.65;2.08;;;18.80;78.10;;;;;;6120664;23;20163;-83
2023/09/24 09:08:51;;;;;;;2.28;2.08;;;18.80;78.10;;;;;;6071444;23;20163;-82
2023/09/24 09:11:19;;;;;;;2.53;2.17;;;18.80;78.10;;;;;;6122246;23;20208;-83
2023/09/24 09:13:48;;;;;;;2.20;2.00;;;18.80;78.00;;;;;;6120476;23;20635;-83
2023/09/24 09:16:16;;;;;;;2.45;2.10;;;18.80;77.90;;;;;;6122261;23;20140;-83
2023/09/24 09:18:42;;;;;;;2.50;2.20;;;18.80;77.70;;;;;;6121164;23;20132;-83
2023/09/24 09:21:08;;;;;;;2.60;2.22;;;18.80;77.80;;;;;;6120751;23;20211;-82
2023/09/24 09:23:37;;;;;;;2.13;1.90;;;18.80;77.70;;;;;;6096733;23;20183;-83
2023/09/24 09:26:02;;;;;;;2.47;1.90;;;18.80;77.50;;;;;;6120604;23;20140;-85
2023/09/24 09:28:29;;;;;;;2.25;2.00;;;18.80;77.40;;;;;;6138954;23;20630;-83
2023/09/24 09:30:59;;;;;;;2.08;1.88;;;18.80;77.40;;;;;;6101197;23;20166;-84
2023/09/24 09:33:27;;;;;;;3.08;2.10;;;18.80;77.40;;;;;;6151390;23;20209;-80
2023/09/24 09:35:54;;;;;;;2.70;2.30;;;18.80;77.20;;;;;;6151838;23;20214;-85
2023/09/24 09:38:19;;;;;;;2.15;1.95;;;18.80;77.50;;;;;;6151756;22;20162;-79
2023/09/24 09:40:45;;;;;;;2.15;1.65;;;18.80;77.40;;;;;;6151525;22;20136;-83
2023/09/24 09:43:12;;;;;;;2.28;2.05;;;18.80;76.90;;;;;;6151852;23;20170;-82
2023/09/24 09:45:37;;;;;;;2.13;1.92;;;18.80;77.40;;;;;;6151586;23;20589;-82
2023/09/24 09:48:04;;;;;;;2.30;1.95;;;18.80;77.00;;;;;;6151542;22;20140;-82
2023/09/24 09:50:31;;;;;;;2.05;1.80;;;18.80;77.00;;;;;;6125518;23;20186;-81
2023/09/24 09:52:57;;;;;;;2.80;2.10;;;18.80;76.70;;;;;;6125604;23;20243;-83
2023/09/24 09:55:23;;;;;;;2.13;1.88;;;18.80;76.50;;;;;;6151527;22;20143;-82
2023/09/24 09:57:49;;;;;;;1.70;1.60;;;18.80;76.70;;;;;;6125496;23;20152;-80
2023/09/24 10:00:16;;;;;;;2.00;1.80;;;18.70;76.40;;;;;;6151617;22;20135;-80
2023/09/24 10:02:42;;;;;;;2.08;1.88;;;18.80;76.40;;;;;;6125553;23;20139;-83
2023/09/24 10:05:09;;;;;;;2.40;2.05;;;18.70;76.40;;;;;;6125555;23;20152;-81
2023/09/24 10:07:37;;;;;;;2.40;2.00;;;18.80;76.50;;;;;;6100959;23;20219;-82
2023/09/24 10:10:40;;;;;;;1.65;1.55;;;18.80;76.50;;;;;;6101140;23;20163;-82
2023/09/24 10:13:06;;;;;;;1.98;1.60;;;18.80;76.10;;;;;;6151298;22;20190;-81
2023/09/24 10:15:31;;;;;;;2.47;1.65;;;18.80;76.10;;;;;;6151309;22;20132;-82
2023/09/24 10:18:21;;;;;;;1.98;1.70;;;18.80;75.90;;;;;;6151434;22;20166;-84
2023/09/24 10:21:07;;;;;;;2.38;1.75;;;18.80;76.00;;;;;;6106419;23;20136;-81
2023/09/24 10:23:35;;;;;;;1.90;1.75;;;18.80;75.40;;;;;;6129774;23;20147;-82
2023/09/24 10:26:04;;;;;;;2.20;1.75;;;18.80;75.70;;;;;;6126127;23;20571;-80
2023/09/24 10:28:46;;;;;;;2.78;2.00;;;18.80;75.50;;;;;;6101236;23;20526;-79
2023/09/24 10:31:12;;;;;;;2.08;1.88;;;18.80;75.60;;;;;;6151041;23;20151;-81
2023/09/24 10:33:53;;;;;;;1.63;1.52;;;18.80;75.20;;;;;;6151536;22;20211;-81
2023/09/24 10:36:22;;;;;;;2.25;1.73;;;18.80;75.20;;;;;;6151969;22;20139;-83
2023/09/24 10:39:06;;;;;;;1.77;1.55;;;18.80;75.40;;;;;;6151283;23;20132;-80
2023/09/24 10:41:33;;;;;;;2.00;1.80;;;18.80;75.20;;;;;;6151547;23;20140;-81
2023/09/24 10:44:28;;;;;;;1.40;1.30;;;18.80;74.90;;;;;;6101740;23;20208;-83
2023/09/24 10:46:53;;;;;;;2.20;1.85;;;18.80;74.50;;;;;;6151335;23;20155;-82
2023/09/24 10:49:21;;;;;;;2.45;1.60;;;18.80;74.60;;;;;;6151129;22;20584;-83
2023/09/24 10:51:48;;;;;;;1.90;1.70;;;18.80;74.20;;;;;;6100962;23;20185;-82
2023/09/24 10:54:15;;;;;;;2.08;1.58;;;18.80;74.70;;;;;;6125613;23;20506;-84
2023/09/24 10:56:45;;;;;;;1.50;1.40;;;18.80;74.20;;;;;;6125142;23;20155;-80
2023/09/24 10:59:11;;;;;;;2.05;1.27;;;18.80;74.10;;;;;;6126270;23;20128;-82
2023/09/24 11:01:37;;;;;;;1.48;1.38;;;18.80;73.50;;;;;;6125077;23;20166;-84
2023/09/24 11:04:02;;;;;;;1.48;1.38;;;18.80;73.60;;;;;;6151060;22;20136;-82
2023/09/24 11:06:31;;;;;;;1.70;1.27;;;18.80;74.00;;;;;;6125237;23;20193;-81
2023/09/24 11:09:15;;;;;;;1.58;1.48;;;18.90;73.40;;;;;;6124702;23;20136;-84
2023/09/24 11:11:41;;;;;;;1.42;1.27;;;18.90;73.20;;;;;;6151170;22;20135;-83
2023/09/24 11:14:16;;;;;;;1.67;1.50;;;18.80;73.10;;;;;;6125021;23;20238;-81
2023/09/24 11:16:42;;;;;;;1.30;1.10;;;18.80;73.20;;;;;;6125361;23;20166;-81
2023/09/24 11:19:08;;;;;;;1.50;1.40;;;18.90;72.80;;;;;;6100553;23;20151;-80
2023/09/24 11:21:34;;;;;;;1.95;1.40;;;18.90;73.50;;;;;;6125543;23;20140;-82
2023/09/24 11:23:59;;;;;;;2.22;1.40;;;18.80;72.80;;;;;;6125155;23;20517;-82
2023/09/24 11:26:28;;;;;;;1.40;1.30;;;18.90;72.60;;;;;;6124881;23;20139;-84
2023/09/24 11:28:56;;;;;;;1.88;1.70;;;18.90;72.50;;;;;;6151170;22;20195;-81
2023/09/24 11:31:24;;;;;;;1.73;1.50;;;18.90;73.10;;;;;;6125439;23;20211;-84
2023/09/24 11:33:57;;;;;;;1.40;1.30;;;18.90;72.60;;;;;;6151221;23;20224;-83
2023/09/24 11:36:27;;;;;;;3.20;1.85;;;18.90;72.40;;;;;;6151043;22;20138;-82
2023/09/24 11:39:00;;;;;;;1.58;1.40;;;18.90;72.60;;;;;;6125719;23;20142;-81
2023/09/24 11:41:26;;;;;;;1.63;1.23;;;18.90;71.80;;;;;;6100475;23;20486;-83
2023/09/24 11:43:56;;;;;;;1.60;1.23;;;18.90;72.00;;;;;;6125095;23;20151;-87
2023/09/24 11:46:25;;;;;;;1.33;1.23;;;18.90;72.00;;;;;;6151372;22;20143;-83
2023/09/24 11:48:52;;;;;;;1.30;1.20;;;18.90;71.70;;;;;;6101955;23;20490;-84
2023/09/24 11:51:20;;;;;;;1.40;1.20;;;18.90;71.70;;;;;;6150935;23;20729;-81
2023/09/24 11:53:46;;;;;;;1.40;1.30;;;18.90;71.50;;;;;;6124844;23;20179;-81
2023/09/24 11:56:12;;;;;;;1.50;1.40;;;18.90;71.90;;;;;;6125432;23;20601;-81
2023/09/24 11:58:38;;;;;;;1.33;1.17;;;18.90;71.60;;;;;;6152743;22;20193;-83
2023/09/24 12:01:06;;;;;;;1.30;1.10;;;18.90;71.70;;;;;;6154140;22;20136;-81
2023/09/24 12:03:32;;;;;;;1.98;1.23;;;18.90;70.90;;;;;;6155109;22;20163;-82
2023/09/24 12:05:58;;;;;;;1.50;1.27;;;18.90;71.40;;;;;;6104698;23;20483;-81
2023/09/24 12:08:23;;;;;;;1.83;1.40;;;19.00;71.30;;;;;;6125592;23;20166;-83
2023/09/24 12:10:51;;;;;;;1.58;1.40;;;18.90;71.00;;;;;;6126170;23;20565;-82
2023/09/24 12:13:18;;;;;;;1.27;1.17;;;18.90;72.00;;;;;;6125935;23;20236;-80
2023/09/24 12:15:44;;;;;;;1.40;1.30;;;19.00;70.70;;;;;;6152100;22;20205;-83
2023/09/24 12:18:09;;;;;;;1.50;1.27;;;19.00;70.60;;;;;;6151639;23;20158;-84
2023/09/24 12:20:43;;;;;;;2.22;1.40;;;18.90;70.70;;;;;;6151884;22;20560;-83
2023/09/24 12:23:12;;;;;;;1.33;1.08;;;18.90;70.40;;;;;;6053691;23;20250;-83
2023/09/24 12:25:40;;;;;;;3.70;1.10;;;19.00;69.80;;;;;;6077780;23;20529;-83
2023/09/24 12:28:32;;;;;;;1.00;0.90;;;19.00;70.10;;;;;;6096863;23;20191;-82
2023/09/24 12:30:56;;;;;;;1.38;1.15;;;19.00;69.40;;;;;;6101030;23;20206;-83
2023/09/24 12:33:22;;;;;;;1.20;1.10;;;19.00;68.90;;;;;;6121112;23;20226;-82
2023/09/24 12:35:49;;;;;;;1.27;1.17;;;18.90;68.80;;;;;;6073103;23;20156;-83
2023/09/24 12:38:15;;;;;;;1.00;1.00;;;19.00;68.50;;;;;;6121212;23;20156;-83
2023/09/24 12:40:41;;;;;;;1.08;0.98;;;19.00;68.30;;;;;;6073015;23;20194;-84
2023/09/24 12:43:12;;;;;;;1.15;1.00;;;19.00;68.00;;;;;;6120972;23;20156;-83
2023/09/24 12:45:38;;;;;;;1.30;1.00;;;19.00;67.80;;;;;;6073678;23;20195;-84
2023/09/24 12:48:09;;;;;;;1.23;0.98;;;18.90;67.80;;;;;;6096926;23;20164;-85